Elma, New York
Current Conditions -  °F | °C
As of 10:54 PM on Saturday 25 Oct 2014 (Local Time) from KBUF Reporting Station
Broken Clouds Broken Clouds  
Wind Chill: 53°   Ceiling: 6500
Heat Index: 53°   Visibility: 10mi
Dew Point: 40°   Wind: 15mph
Humidity: 61%   Direction: 320°NW
Pressure: 29.65"   Gusts: NA
Location:  42.85°N, 78.64°W
Report Text: KBUF 260254Z 32013KT 10SM FEW048 BKN065 12/04 A2965 RMK AO2 PK WND 31032/0205 WSHFT 0149 RAB0158E12 SLP041 OCNL LTGICCG DSNT SE CB SE MOV SE P0000 60000 T01170044 53012
Loading
Personal Weather Stations






























Interactive Weather Map
Tropical Storm Tracking
New forecast layout! Learn more

10-Day Weather Forecast

Advertisements
Track Severe Weather on mobile